Time;durP1;ratioP1;P1;durP2;ratioP2;P2;SDS_P1;SDS_P2;PMS_P1;PMS_P2;Temp;Humidity;BMP_temperature;BMP_pressure;BME280_temperature;BME280_humidity;BME280_pressure;Samples;Min_cycle;Max_cycle;Signal;HPM_P1;HPM_P2
2022/10/03 00:00:30;;;;;;;2.80;1.70;;;;;;;;;;5098832;28;20682;-64
2022/10/03 00:03:19;;;;;;;4.77;1.70;;;;;;;;;;5099861;28;20202;-64
2022/10/03 00:05:57;;;;;;;1.60;1.50;;;;;;;;;;5097094;28;20213;-65
2022/10/03 00:08:32;;;;;;;2.73;1.33;;;;;;;;;;5100033;28;20200;-65
2022/10/03 00:11:04;;;;;;;3.90;1.50;;;;;;;;;;5100031;28;20277;-65
2022/10/03 00:13:38;;;;;;;3.37;1.97;;;;;;;;;;5100126;28;20301;-63
2022/10/03 00:16:09;;;;;;;1.43;1.33;;;;;;;;;;5100071;28;20201;-63
2022/10/03 00:18:43;;;;;;;3.23;1.30;;;;;;;;;;5099693;28;20558;-64
2022/10/03 00:21:23;;;;;;;4.40;2.50;;;;;;;;;;5099648;28;20197;-65
2022/10/03 00:23:57;;;;;;;2.07;1.30;;;;;;;;;;5099711;28;20221;-66
2022/10/03 00:26:29;;;;;;;2.67;1.17;;;;;;;;;;5099873;28;20205;-65
2022/10/03 00:29:12;;;;;;;3.00;1.70;;;;;;;;;;5099474;28;20198;-65
2022/10/03 00:31:45;;;;;;;2.50;1.70;;;;;;;;;;5097763;28;20208;-65
2022/10/03 00:34:21;;;;;;;4.53;1.47;;;;;;;;;;5099140;28;20240;-65
2022/10/03 00:36:57;;;;;;;3.57;1.97;;;;;;;;;;5099580;28;20201;-65
2022/10/03 00:39:33;;;;;;;2.80;1.67;;;;;;;;;;5099689;28;20224;-65
2022/10/03 00:42:35;;;;;;;1.70;1.50;;;;;;;;;;5099244;28;20201;-65
2022/10/03 00:45:20;;;;;;;6.23;1.50;;;;;;;;;;5099344;28;20307;-65
2022/10/03 00:47:56;;;;;;;4.60;1.90;;;;;;;;;;5099213;28;20289;-66
2022/10/03 00:50:42;;;;;;;5.03;1.40;;;;;;;;;;5094905;28;20284;-64
2022/10/03 00:53:25;;;;;;;3.37;1.43;;;;;;;;;;5098839;28;20308;-65
2022/10/03 00:56:01;;;;;;;1.17;1.07;;;;;;;;;;5096977;28;20201;-65
2022/10/03 00:58:34;;;;;;;3.03;1.53;;;;;;;;;;5099351;28;20280;-66
2022/10/03 01:01:19;;;;;;;2.60;1.40;;;;;;;;;;5100799;28;20279;-65
2022/10/03 01:03:52;;;;;;;2.57;1.33;;;;;;;;;;5099922;28;20582;-65
2022/10/03 01:06:25;;;;;;;5.83;1.90;;;;;;;;;;5097832;28;20233;-65
2022/10/03 01:09:17;;;;;;;3.03;1.50;;;;;;;;;;5095390;28;20615;-64
2022/10/03 01:12:00;;;;;;;4.83;1.40;;;;;;;;;;5077289;28;20207;-65
2022/10/03 01:14:37;;;;;;;4.53;1.50;;;;;;;;;;5097227;28;20248;-65
2022/10/03 01:17:09;;;;;;;1.23;1.13;;;;;;;;;;5097588;28;20204;-64
2022/10/03 01:19:52;;;;;;;1.37;1.03;;;;;;;;;;5095893;28;20714;-65
2022/10/03 01:22:31;;;;;;;3.17;1.80;;;;;;;;;;5095684;28;20940;-65
2022/10/03 01:25:05;;;;;;;2.20;1.43;;;;;;;;;;5096823;28;20223;-65
2022/10/03 01:30:21;;;;;;;3.07;1.50;;;;;;;;;;5096643;28;20209;-65
2022/10/03 01:30:33;;;;;;;4.33;1.70;;;;;;;;;;5105225;28;20200;-65
2022/10/03 01:33:09;;;;;;;4.07;1.30;;;;;;;;;;5107862;28;20619;-64
2022/10/03 01:35:45;;;;;;;3.13;1.47;;;;;;;;;;5101209;28;20223;-65
2022/10/03 01:38:19;;;;;;;5.03;1.27;;;;;;;;;;5098791;28;20277;-63
2022/10/03 01:40:50;;;;;;;2.97;1.27;;;;;;;;;;5094314;28;20308;-65
2022/10/03 01:43:19;;;;;;;1.40;1.03;;;;;;;;;;5098299;28;20243;-65
2022/10/03 01:46:05;;;;;;;3.83;1.50;;;;;;;;;;5098382;28;20228;-65
2022/10/03 01:48:37;;;;;;;8.03;2.00;;;;;;;;;;5097821;28;20199;-65
2022/10/03 01:51:10;;;;;;;5.07;1.33;;;;;;;;;;5098300;28;20277;-65
2022/10/03 01:53:46;;;;;;;4.83;1.40;;;;;;;;;;5098270;28;20225;-65
2022/10/03 01:56:19;;;;;;;4.40;1.63;;;;;;;;;;5098255;28;20195;-65
2022/10/03 01:58:55;;;;;;;3.33;1.53;;;;;;;;;;5097801;28;20284;-65
2022/10/03 02:01:28;;;;;;;3.77;1.60;;;;;;;;;;5098213;28;20221;-65
2022/10/03 02:04:03;;;;;;;5.03;2.00;;;;;;;;;;5097360;28;20696;-65
2022/10/03 02:06:35;;;;;;;3.00;1.37;;;;;;;;;;5093700;28;20212;-66
2022/10/03 02:09:07;;;;;;;5.17;2.50;;;;;;;;;;5089473;28;20208;-65
2022/10/03 02:11:37;;;;;;;9.47;3.87;;;;;;;;;;5097555;28;20202;-65
2022/10/03 02:14:12;;;;;;;9.30;5.07;;;;;;;;;;5097569;28;20236;-65
2022/10/03 02:16:44;;;;;;;7.93;2.93;;;;;;;;;;5097630;28;20666;-66
2022/10/03 02:19:20;;;;;;;3.63;1.57;;;;;;;;;;5097681;28;20199;-66
2022/10/03 02:21:48;;;;;;;4.00;1.70;;;;;;;;;;5097423;28;20660;-65
2022/10/03 02:24:29;;;;;;;1.73;1.50;;;;;;;;;;5097262;28;20225;-65
2022/10/03 02:27:11;;;;;;;4.27;1.17;;;;;;;;;;5097490;28;20199;-65
2022/10/03 02:29:50;;;;;;;3.57;1.80;;;;;;;;;;5095491;28;20649;-65
2022/10/03 02:32:45;;;;;;;2.30;1.40;;;;;;;;;;5097046;28;20723;-65
2022/10/03 02:35:30;;;;;;;6.10;1.67;;;;;;;;;;5097537;28;20217;-66
2022/10/03 02:38:09;;;;;;;3.70;1.50;;;;;;;;;;5097378;28;20201;-65
2022/10/03 02:41:10;;;;;;;3.23;1.40;;;;;;;;;;5092156;28;20217;-65
2022/10/03 02:43:56;;;;;;;2.57;1.57;;;;;;;;;;5090338;28;20229;-66
2022/10/03 02:46:41;;;;;;;3.50;1.70;;;;;;;;;;5097221;28;20276;-65
2022/10/03 02:49:27;;;;;;;3.87;1.33;;;;;;;;;;5097002;28;20716;-66
2022/10/03 02:52:01;;;;;;;8.00;1.37;;;;;;;;;;5088092;28;20618;-66
2022/10/03 02:54:53;;;;;;;4.37;1.70;;;;;;;;;;5097215;28;20232;-66
2022/10/03 02:57:48;;;;;;;4.17;1.47;;;;;;;;;;5096999;28;20200;-66
2022/10/03 03:00:19;;;;;;;4.30;1.40;;;;;;;;;;5093767;28;20776;-65
2022/10/03 03:03:06;;;;;;;4.57;1.30;;;;;;;;;;5096613;28;20219;-65
2022/10/03 03:06:03;;;;;;;3.97;1.70;;;;;;;;;;5093841;28;20281;-65
2022/10/03 03:08:46;;;;;;;3.63;1.50;;;;;;;;;;5095612;28;20205;-65
2022/10/03 03:11:26;;;;;;;3.60;1.50;;;;;;;;;;5092017;28;20216;-65
2022/10/03 03:14:12;;;;;;;2.97;1.23;;;;;;;;;;5096876;28;20221;-65
2022/10/03 03:16:52;;;;;;;4.47;1.13;;;;;;;;;;5086911;28;20205;-65
2022/10/03 03:19:50;;;;;;;6.47;1.90;;;;;;;;;;5090282;28;20211;-66
2022/10/03 03:22:32;;;;;;;3.77;1.60;;;;;;;;;;5046799;28;20204;-65
2022/10/03 03:25:08;;;;;;;6.47;1.40;;;;;;;;;;5090249;28;20214;-65
2022/10/03 03:27:47;;;;;;;2.43;1.07;;;;;;;;;;5094457;28;20202;-65
2022/10/03 03:30:16;;;;;;;1.90;1.20;;;;;;;;;;5094800;28;20261;-65
2022/10/03 03:32:49;;;;;;;3.13;1.30;;;;;;;;;;5095501;28;20197;-65
2022/10/03 03:35:23;;;;;;;1.57;1.20;;;;;;;;;;5097759;28;20534;-65
2022/10/03 03:37:55;;;;;;;1.10;0.93;;;;;;;;;;5098147;28;20204;-65
2022/10/03 03:40:31;;;;;;;2.73;1.50;;;;;;;;;;5099255;28;20222;-65
2022/10/03 03:43:20;;;;;;;2.40;1.23;;;;;;;;;;5099657;28;20197;-65
2022/10/03 03:46:04;;;;;;;4.73;1.53;;;;;;;;;;5059744;28;20228;-65
2022/10/03 03:48:46;;;;;;;5.10;1.30;;;;;;;;;;5096284;28;20193;-65
2022/10/03 03:51:22;;;;;;;5.63;1.30;;;;;;;;;;5097861;28;20194;-66
2022/10/03 03:54:00;;;;;;;6.60;1.00;;;;;;;;;;5096778;28;20219;-65
2022/10/03 03:56:37;;;;;;;2.10;1.40;;;;;;;;;;5096180;28;20236;-65
2022/10/03 03:59:13;;;;;;;1.47;1.37;;;;;;;;;;5098845;28;20686;-65
2022/10/03 04:01:47;;;;;;;1.57;1.00;;;;;;;;;;5106765;28;20249;-65
2022/10/03 04:04:23;;;;;;;1.70;1.00;;;;;;;;;;5110135;28;20252;-66
2022/10/03 04:06:56;;;;;;;5.00;1.07;;;;;;;;;;5108996;28;20732;-65
2022/10/03 04:09:54;;;;;;;4.57;1.33;;;;;;;;;;5105191;28;20552;-65
2022/10/03 04:12:32;;;;;;;3.87;1.40;;;;;;;;;;5093957;28;20657;-66
2022/10/03 04:15:17;;;;;;;1.20;1.10;;;;;;;;;;5099555;28;20228;-65
2022/10/03 04:20:59;;;;;;;3.47;1.13;;;;;;;;;;5094359;28;20227;-66
2022/10/03 04:23:34;;;;;;;4.07;1.30;;;;;;;;;;5091735;28;20226;-65
2022/10/03 04:26:11;;;;;;;2.13;1.60;;;;;;;;;;5097785;28;20202;-65
2022/10/03 04:28:50;;;;;;;3.77;2.03;;;;;;;;;;5098358;28;20287;-65
2022/10/03 04:31:27;;;;;;;2.20;1.17;;;;;;;;;;5097316;28;20579;-65
2022/10/03 04:34:00;;;;;;;2.93;1.70;;;;;;;;;;5099360;28;20217;-66
2022/10/03 04:36:47;;;;;;;3.60;1.23;;;;;;;;;;5099536;28;20688;-65
2022/10/03 04:39:20;;;;;;;7.93;1.60;;;;;;;;;;5099247;28;20202;-65
2022/10/03 04:41:51;;;;;;;2.20;1.10;;;;;;;;;;5099546;28;20231;-66
2022/10/03 04:44:29;;;;;;;3.63;1.20;;;;;;;;;;5099244;28;20242;-65
2022/10/03 04:46:59;;;;;;;2.53;1.37;;;;;;;;;;5094984;28;20203;-65
2022/10/03 04:49:31;;;;;;;3.87;1.50;;;;;;;;;;5091437;28;20198;-66
2022/10/03 04:52:02;;;;;;;1.80;1.10;;;;;;;;;;5099181;28;20229;-65
2022/10/03 04:54:43;;;;;;;1.40;1.20;;;;;;;;;;5099113;28;20722;-65
2022/10/03 04:57:18;;;;;;;3.50;1.10;;;;;;;;;;5098928;28;20280;-65
2022/10/03 04:59:50;;;;;;;2.57;1.30;;;;;;;;;;5104348;28;20268;-65
2022/10/03 05:02:39;;;;;;;4.43;1.30;;;;;;;;;;5104307;28;20308;-65
2022/10/03 05:05:25;;;;;;;2.60;1.13;;;;;;;;;;5101118;27;20236;-65
2022/10/03 05:07:57;;;;;;;4.57;1.60;;;;;;;;;;5103635;28;20284;-64
2022/10/03 05:10:30;;;;;;;1.70;1.00;;;;;;;;;;5103623;28;20288;-64
2022/10/03 05:13:02;;;;;;;2.83;1.33;;;;;;;;;;5101927;28;20197;-64
2022/10/03 05:15:33;;;;;;;2.53;1.20;;;;;;;;;;5098764;28;20208;-65
2022/10/03 05:18:04;;;;;;;1.50;0.90;;;;;;;;;;5096507;28;20286;-65
2022/10/03 05:20:38;;;;;;;2.40;1.30;;;;;;;;;;5096993;28;20280;-65
2022/10/03 05:23:12;;;;;;;2.67;1.20;;;;;;;;;;5098689;28;20223;-65
2022/10/03 05:25:46;;;;;;;4.80;1.73;;;;;;;;;;5094246;28;20260;-65
2022/10/03 05:28:21;;;;;;;6.13;1.37;;;;;;;;;;5099029;28;20198;-65
2022/10/03 05:30:53;;;;;;;7.33;1.43;;;;;;;;;;5092968;28;20244;-65
2022/10/03 05:33:30;;;;;;;4.67;1.67;;;;;;;;;;5098045;28;20751;-64
2022/10/03 05:36:05;;;;;;;2.60;1.00;;;;;;;;;;5097984;28;20728;-65
2022/10/03 05:38:44;;;;;;;2.27;1.37;;;;;;;;;;5098249;28;20544;-64
2022/10/03 05:41:19;;;;;;;1.53;1.07;;;;;;;;;;5103615;28;20217;-64
2022/10/03 05:43:58;;;;;;;1.17;1.03;;;;;;;;;;5106057;28;20296;-64
2022/10/03 05:46:44;;;;;;;1.63;1.20;;;;;;;;;;5105413;28;20272;-64
2022/10/03 05:49:29;;;;;;;3.17;1.50;;;;;;;;;;5101007;28;20239;-64
2022/10/03 05:52:04;;;;;;;2.33;1.30;;;;;;;;;;5097311;28;20317;-65
2022/10/03 05:54:52;;;;;;;2.47;1.17;;;;;;;;;;5098026;28;20586;-64
2022/10/03 05:57:51;;;;;;;0.93;0.80;;;;;;;;;;5093670;28;20210;-64
2022/10/03 06:00:21;;;;;;;4.83;1.17;;;;;;;;;;5095486;28;20194;-64
2022/10/03 06:02:54;;;;;;;0.80;0.77;;;;;;;;;;5097401;28;20229;-64
2022/10/03 06:05:35;;;;;;;2.33;1.17;;;;;;;;;;5097488;28;20730;-64
2022/10/03 06:08:21;;;;;;;2.70;1.10;;;;;;;;;;5097108;28;20834;-64
2022/10/03 06:10:51;;;;;;;1.90;0.90;;;;;;;;;;5097703;28;20197;-64
2022/10/03 06:13:25;;;;;;;2.73;1.00;;;;;;;;;;5103847;28;20219;-64
2022/10/03 06:15:56;;;;;;;1.90;0.93;;;;;;;;;;5100300;28;20280;-64
2022/10/03 06:18:41;;;;;;;1.63;0.90;;;;;;;;;;5097476;28;20259;-64
2022/10/03 06:21:27;;;;;;;2.23;0.80;;;;;;;;;;5097607;28;20292;-64
2022/10/03 06:24:05;;;;;;;3.60;1.37;;;;;;;;;;5097304;28;20652;-65
2022/10/03 06:26:50;;;;;;;1.33;1.00;;;;;;;;;;5097615;28;20549;-65
2022/10/03 06:29:34;;;;;;;2.20;0.90;;;;;;;;;;5087156;28;20200;-65
2022/10/03 06:32:20;;;;;;;1.53;0.77;;;;;;;;;;5073828;28;20206;-64
2022/10/03 06:35:18;;;;;;;2.43;1.23;;;;;;;;;;5076508;28;20227;-65
2022/10/03 06:37:57;;;;;;;1.43;0.70;;;;;;;;;;5091647;28;20202;-64
2022/10/03 06:40:43;;;;;;;4.07;1.53;;;;;;;;;;5094863;28;20280;-64
2022/10/03 06:43:30;;;;;;;0.93;0.90;;;;;;;;;;5097292;28;20262;-63
2022/10/03 06:46:16;;;;;;;0.50;0.50;;;;;;;;;;5096894;28;20206;-63
2022/10/03 06:49:04;;;;;;;2.17;0.93;;;;;;;;;;5097105;28;20627;-64
2022/10/03 06:51:52;;;;;;;3.40;0.90;;;;;;;;;;5097302;28;20236;-64
2022/10/03 06:54:51;;;;;;;1.30;0.70;;;;;;;;;;5097336;28;20298;-63
2022/10/03 06:57:27;;;;;;;2.23;0.90;;;;;;;;;;5096762;28;20207;-63
2022/10/03 07:00:14;;;;;;;2.93;0.80;;;;;;;;;;5097193;28;20598;-64
2022/10/03 07:03:01;;;;;;;1.20;0.70;;;;;;;;;;5089446;28;20685;-64
2022/10/03 07:05:49;;;;;;;2.00;0.90;;;;;;;;;;5096155;28;20206;-64
2022/10/03 07:08:37;;;;;;;2.30;1.20;;;;;;;;;;5097727;28;20201;-65
2022/10/03 07:11:07;;;;;;;1.47;1.00;;;;;;;;;;5101330;28;20201;-65
2022/10/03 07:13:41;;;;;;;1.53;1.00;;;;;;;;;;5101229;28;20221;-65
2022/10/03 07:16:29;;;;;;;1.83;0.80;;;;;;;;;;5101289;28;20558;-64
2022/10/03 07:19:15;;;;;;;1.50;0.67;;;;;;;;;;5101360;28;20193;-65
2022/10/03 07:22:01;;;;;;;3.07;1.00;;;;;;;;;;5100827;28;20553;-64
2022/10/03 07:24:42;;;;;;;1.57;0.83;;;;;;;;;;5100865;28;20221;-65
2022/10/03 07:27:18;;;;;;;1.97;0.73;;;;;;;;;;5100997;28;20620;-64
2022/10/03 07:30:01;;;;;;;1.60;0.70;;;;;;;;;;5100721;28;20205;-65
2022/10/03 07:32:39;;;;;;;0.60;0.60;;;;;;;;;;5098697;28;20285;-64
2022/10/03 07:35:20;;;;;;;1.27;0.73;;;;;;;;;;5100021;28;20217;-64
2022/10/03 07:41:18;;;;;;;1.20;1.00;;;;;;;;;;5100455;28;20201;-64
2022/10/03 07:43:53;;;;;;;2.50;0.80;;;;;;;;;;5052142;28;20244;-64
2022/10/03 07:46:34;;;;;;;0.97;0.67;;;;;;;;;;5100951;28;20268;-65
2022/10/03 07:49:17;;;;;;;0.40;0.40;;;;;;;;;;5100286;28;20284;-64
2022/10/03 07:51:57;;;;;;;2.53;0.70;;;;;;;;;;5091950;28;20279;-64
2022/10/03 07:54:52;;;;;;;0.67;0.63;;;;;;;;;;5098220;28;20567;-64
2022/10/03 07:57:38;;;;;;;0.80;0.80;;;;;;;;;;5064351;28;20205;-65
2022/10/03 08:00:12;;;;;;;2.97;0.80;;;;;;;;;;5092406;28;20564;-64
2022/10/03 08:03:11;;;;;;;1.20;0.40;;;;;;;;;;5100161;28;20264;-64
2022/10/03 08:05:46;;;;;;;1.60;0.50;;;;;;;;;;5094337;28;20201;-65
2022/10/03 08:08:22;;;;;;;1.23;0.80;;;;;;;;;;5100226;28;20193;-64
2022/10/03 08:11:01;;;;;;;1.83;0.57;;;;;;;;;;5099681;28;20205;-64
2022/10/03 08:13:35;;;;;;;0.60;0.50;;;;;;;;;;5100075;28;20263;-64
2022/10/03 08:16:13;;;;;;;3.03;0.53;;;;;;;;;;5099821;28;20207;-64
2022/10/03 08:18:52;;;;;;;1.20;0.60;;;;;;;;;;5095794;28;20310;-65
2022/10/03 08:21:24;;;;;;;1.07;0.50;;;;;;;;;;5092252;28;20198;-64
2022/10/03 08:24:16;;;;;;;1.20;0.43;;;;;;;;;;5097763;28;20235;-64
2022/10/03 08:27:02;;;;;;;0.90;0.53;;;;;;;;;;5097970;28;20208;-64
2022/10/03 08:29:42;;;;;;;0.50;0.40;;;;;;;;;;5097919;28;20296;-64
2022/10/03 08:32:34;;;;;;;0.60;0.30;;;;;;;;;;5095544;28;20825;-64
2022/10/03 08:35:34;;;;;;;0.50;0.50;;;;;;;;;;5040849;28;20291;-64
2022/10/03 08:38:20;;;;;;;0.30;0.30;;;;;;;;;;5037120;28;20291;-64
2022/10/03 08:41:04;;;;;;;0.30;0.30;;;;;;;;;;5096378;28;20546;-64
2022/10/03 08:44:05;;;;;;;0.93;0.50;;;;;;;;;;5099766;28;20232;-65
2022/10/03 08:47:03;;;;;;;0.50;0.50;;;;;;;;;;5013693;28;20595;-65
2022/10/03 08:49:40;;;;;;;0.90;0.50;;;;;;;;;;4953632;29;20203;-65
2022/10/03 08:52:20;;;;;;;0.40;0.40;;;;;;;;;;5062388;28;20237;-64
2022/10/03 08:55:18;;;;;;;2.20;0.60;;;;;;;;;;5099616;28;20310;-64
2022/10/03 08:57:58;;;;;;;0.70;0.70;;;;;;;;;;5037103;28;20291;-64
2022/10/03 09:00:29;;;;;;;1.30;0.50;;;;;;;;;;5085770;28;20756;-64
2022/10/03 09:03:19;;;;;;;0.30;0.30;;;;;;;;;;5099167;28;20222;-64
2022/10/03 09:06:23;;;;;;;0.10;0.10;;;;;;;;;;5096812;28;20315;-64
2022/10/03 09:09:12;;;;;;;0.73;0.30;;;;;;;;;;5070565;28;20259;-64
2022/10/03 09:12:10;;;;;;;0.47;0.30;;;;;;;;;;5060278;28;20202;-64
2022/10/03 09:14:53;;;;;;;1.57;0.40;;;;;;;;;;5093289;28;20632;-65
2022/10/03 09:17:42;;;;;;;0.30;0.30;;;;;;;;;;5098712;28;20548;-64
2022/10/03 09:20:16;;;;;;;0.40;0.40;;;;;;;;;;5073074;28;20198;-64
2022/10/03 09:22:53;;;;;;;0.50;0.40;;;;;;;;;;5099112;28;20246;-65
2022/10/03 09:25:23;;;;;;;0.30;0.30;;;;;;;;;;5098854;28;20193;-64
2022/10/03 09:28:09;;;;;;;5.23;0.73;;;;;;;;;;5098705;28;20564;-64
2022/10/03 09:30:47;;;;;;;0.70;0.70;;;;;;;;;;5068156;28;20243;-65
2022/10/03 09:33:39;;;;;;;0.67;0.43;;;;;;;;;;5097083;28;20216;-64
2022/10/03 09:36:34;;;;;;;0.47;0.47;;;;;;;;;;5098392;28;20223;-64
2022/10/03 09:39:20;;;;;;;2.53;0.60;;;;;;;;;;5098403;28;20208;-64
2022/10/03 09:42:01;;;;;;;0.90;0.50;;;;;;;;;;5098587;28;20208;-64
2022/10/03 09:44:51;;;;;;;0.40;0.40;;;;;;;;;;5096178;28;20225;-64
2022/10/03 09:47:37;;;;;;;0.40;0.40;;;;;;;;;;5097419;28;20225;-65
2022/10/03 09:50:36;;;;;;;1.30;0.50;;;;;;;;;;5098189;28;20201;-65
2022/10/03 09:53:21;;;;;;;2.20;0.63;;;;;;;;;;5094581;28;20229;-65
2022/10/03 09:56:00;;;;;;;0.47;0.40;;;;;;;;;;5095621;28;20201;-64
2022/10/03 09:58:43;;;;;;;0.50;0.50;;;;;;;;;;5098336;28;20288;-64
2022/10/03 10:01:20;;;;;;;1.30;0.40;;;;;;;;;;5085329;28;20236;-64
2022/10/03 10:04:16;;;;;;;0.60;0.60;;;;;;;;;;5093486;28;20225;-64
2022/10/03 10:07:19;;;;;;;0.73;0.43;;;;;;;;;;5098171;28;20197;-64
2022/10/03 10:09:56;;;;;;;0.37;0.37;;;;;;;;;;5098194;28;20197;-65
2022/10/03 10:12:33;;;;;;;0.30;0.30;;;;;;;;;;5097498;28;20208;-64
2022/10/03 10:15:13;;;;;;;0.50;0.50;;;;;;;;;;5098078;28;20304;-64
2022/10/03 10:17:59;;;;;;;1.20;1.07;;;;;;;;;;5089741;28;20197;-64
2022/10/03 10:20:52;;;;;;;0.70;0.70;;;;;;;;;;5097608;28;20680;-64
2022/10/03 10:23:28;;;;;;;0.77;0.60;;;;;;;;;;5094410;28;20251;-64
2022/10/03 10:26:09;;;;;;;0.50;0.50;;;;;;;;;;5097892;28;20207;-64
2022/10/03 10:28:58;;;;;;;0.50;0.50;;;;;;;;;;5097557;28;20209;-64
2022/10/03 10:31:43;;;;;;;2.30;1.00;;;;;;;;;;5092431;28;20581;-64
2022/10/03 10:34:38;;;;;;;0.77;0.37;;;;;;;;;;5097539;28;20300;-64
2022/10/03 10:37:31;;;;;;;0.40;0.40;;;;;;;;;;5097572;28;20202;-65
2022/10/03 10:40:17;;;;;;;0.50;0.50;;;;;;;;;;5094893;28;20641;-64
2022/10/03 10:43:06;;;;;;;1.07;0.60;;;;;;;;;;5093633;28;20227;-64
2022/10/03 10:45:44;;;;;;;2.40;0.70;;;;;;;;;;5097185;28;20189;-64
2022/10/03 10:48:31;;;;;;;0.80;0.73;;;;;;;;;;5096992;28;20718;-64
2022/10/03 10:51:17;;;;;;;0.50;0.50;;;;;;;;;;5094343;28;20205;-65
2022/10/03 10:54:09;;;;;;;0.90;0.50;;;;;;;;;;5097134;28;20348;-64
2022/10/03 10:56:56;;;;;;;1.37;0.80;;;;;;;;;;5082336;28;20562;-64
2022/10/03 10:59:39;;;;;;;1.30;0.50;;;;;;;;;;5097365;28;20284;-64
2022/10/03 11:02:42;;;;;;;0.50;0.50;;;;;;;;;;5092274;28;20257;-63
2022/10/03 11:05:38;;;;;;;1.30;0.50;;;;;;;;;;5094802;28;20324;-64
2022/10/03 11:08:27;;;;;;;0.50;0.50;;;;;;;;;;5097415;28;20197;-64
2022/10/03 11:11:06;;;;;;;0.60;0.50;;;;;;;;;;5089361;28;20201;-64
2022/10/03 11:13:52;;;;;;;1.50;0.80;;;;;;;;;;5096608;28;20586;-65
2022/10/03 11:16:45;;;;;;;0.50;0.40;;;;;;;;;;5066303;28;20197;-64
2022/10/03 11:19:30;;;;;;;0.80;0.60;;;;;;;;;;5093195;28;20653;-64
2022/10/03 11:22:17;;;;;;;0.77;0.73;;;;;;;;;;5096897;28;20201;-62
2022/10/03 11:25:08;;;;;;;0.50;0.50;;;;;;;;;;5093821;28;20239;-65
2022/10/03 11:27:53;;;;;;;0.70;0.50;;;;;;;;;;5096763;28;20201;-64
2022/10/03 11:30:24;;;;;;;1.30;0.43;;;;;;;;;;5096958;28;20671;-64
2022/10/03 11:33:16;;;;;;;0.83;0.40;;;;;;;;;;5096340;28;20310;-64
2022/10/03 11:35:57;;;;;;;0.60;0.60;;;;;;;;;;5097004;28;20285;-64
2022/10/03 11:38:27;;;;;;;2.13;0.67;;;;;;;;;;5097148;28;20282;-64
2022/10/03 11:41:05;;;;;;;0.73;0.73;;;;;;;;;;5096654;28;20198;-64
2022/10/03 11:43:43;;;;;;;0.60;0.60;;;;;;;;;;5096812;28;20221;-63
2022/10/03 11:46:22;;;;;;;0.80;0.50;;;;;;;;;;5096789;28;20561;-64
2022/10/03 11:48:53;;;;;;;0.87;0.83;;;;;;;;;;5096671;28;20285;-64
2022/10/03 11:51:36;;;;;;;2.13;0.90;;;;;;;;;;5096741;28;20289;-64
2022/10/03 11:54:11;;;;;;;0.93;0.80;;;;;;;;;;5096272;28;20321;-64
2022/10/03 11:57:01;;;;;;;0.70;0.70;;;;;;;;;;5099552;28;20201;-64
2022/10/03 11:59:39;;;;;;;0.73;0.70;;;;;;;;;;5093325;28;20211;-63
2022/10/03 12:02:14;;;;;;;0.63;0.63;;;;;;;;;;5098269;28;20201;-63
2022/10/03 12:04:47;;;;;;;3.33;0.70;;;;;;;;;;5098201;28;20221;-62
2022/10/03 12:10:11;;;;;;;0.70;0.70;;;;;;;;;;5098570;28;20205;-64
2022/10/03 12:12:42;;;;;;;1.20;0.90;;;;;;;;;;5098596;28;20273;-64
2022/10/03 12:15:19;;;;;;;1.70;0.80;;;;;;;;;;5098628;28;20221;-64
2022/10/03 12:17:50;;;;;;;0.60;0.60;;;;;;;;;;5099593;28;20747;-64
2022/10/03 12:20:21;;;;;;;0.90;0.90;;;;;;;;;;5092078;28;20284;-64
2022/10/03 12:22:53;;;;;;;1.43;0.80;;;;;;;;;;5100001;28;20280;-64
2022/10/03 12:25:22;;;;;;;1.50;1.40;;;;;;;;;;5099617;28;20650;-64
2022/10/03 12:27:57;;;;;;;0.80;0.73;;;;;;;;;;5100215;28;20293;-64
2022/10/03 12:30:25;;;;;;;1.87;0.73;;;;;;;;;;5098142;28;20234;-64
2022/10/03 12:33:06;;;;;;;1.23;0.60;;;;;;;;;;5097611;28;20915;-64
2022/10/03 12:35:40;;;;;;;1.03;0.80;;;;;;;;;;5098058;28;20274;-64
2022/10/03 12:38:24;;;;;;;0.53;0.50;;;;;;;;;;5097761;28;20247;-64
2022/10/03 12:40:57;;;;;;;0.80;0.70;;;;;;;;;;5097562;28;20201;-64
2022/10/03 12:43:34;;;;;;;0.60;0.60;;;;;;;;;;5097657;28;20229;-64
2022/10/03 12:46:04;;;;;;;3.20;0.77;;;;;;;;;;5098555;28;20224;-64
2022/10/03 12:48:41;;;;;;;1.00;0.70;;;;;;;;;;5099187;28;20202;-64
2022/10/03 12:51:15;;;;;;;1.67;1.03;;;;;;;;;;5099523;28;20202;-65
2022/10/03 12:53:52;;;;;;;2.17;0.60;;;;;;;;;;5099099;28;20603;-65
2022/10/03 12:56:24;;;;;;;1.57;1.00;;;;;;;;;;5099149;28;20667;-65
2022/10/03 12:59:01;;;;;;;0.93;0.83;;;;;;;;;;5099399;28;20207;-64
2022/10/03 13:01:35;;;;;;;3.33;0.70;;;;;;;;;;5099005;28;20211;-64
2022/10/03 13:04:07;;;;;;;1.23;0.67;;;;;;;;;;5099053;28;20245;-64
2022/10/03 13:06:44;;;;;;;1.13;0.83;;;;;;;;;;5098726;28;20286;-64
2022/10/03 13:09:41;;;;;;;0.70;0.70;;;;;;;;;;5099313;28;20260;-64
2022/10/03 13:12:15;;;;;;;0.93;0.63;;;;;;;;;;5099185;28;20315;-64
2022/10/03 13:15:06;;;;;;;0.73;0.73;;;;;;;;;;5098930;28;20224;-64
2022/10/03 13:17:38;;;;;;;1.60;0.70;;;;;;;;;;5098618;28;20308;-64
2022/10/03 13:20:10;;;;;;;0.70;0.70;;;;;;;;;;5098714;28;20202;-64
2022/10/03 13:22:42;;;;;;;1.20;0.67;;;;;;;;;;5099016;28;20280;-64
2022/10/03 13:25:17;;;;;;;0.70;0.70;;;;;;;;;;5098002;28;20240;-64
2022/10/03 13:27:48;;;;;;;1.20;0.80;;;;;;;;;;5098839;28;20208;-64
2022/10/03 13:30:19;;;;;;;4.20;1.27;;;;;;;;;;5098305;28;20688;-64
2022/10/03 13:32:50;;;;;;;0.70;0.70;;;;;;;;;;5098456;28;20568;-65
2022/10/03 13:38:18;;;;;;;2.97;0.80;;;;;;;;;;5098662;28;20198;-64
2022/10/03 13:40:51;;;;;;;0.80;0.80;;;;;;;;;;5098679;28;20279;-64
2022/10/03 13:43:24;;;;;;;0.60;0.60;;;;;;;;;;5098443;28;20284;-64
2022/10/03 13:45:55;;;;;;;1.83;0.77;;;;;;;;;;5098282;28;20228;-64
2022/10/03 13:48:25;;;;;;;1.33;0.70;;;;;;;;;;5097936;28;20605;-64
2022/10/03 13:50:57;;;;;;;1.63;0.80;;;;;;;;;;5098300;28;20202;-64
2022/10/03 13:53:35;;;;;;;2.17;0.60;;;;;;;;;;5097785;28;20354;-64
2022/10/03 13:56:08;;;;;;;0.70;0.70;;;;;;;;;;5098046;28;20197;-64
2022/10/03 13:58:42;;;;;;;0.70;0.70;;;;;;;;;;5097913;28;20201;-64
2022/10/03 14:01:20;;;;;;;1.40;0.70;;;;;;;;;;5098312;28;20276;-64
2022/10/03 14:03:55;;;;;;;1.07;0.80;;;;;;;;;;5094482;28;20313;-64
2022/10/03 14:06:26;;;;;;;0.83;0.67;;;;;;;;;;5097971;28;20221;-64
2022/10/03 14:09:17;;;;;;;0.87;0.80;;;;;;;;;;5097387;28;20582;-64
2022/10/03 14:11:51;;;;;;;0.83;0.60;;;;;;;;;;5097635;28;20201;-65
2022/10/03 14:14:31;;;;;;;0.60;0.60;;;;;;;;;;5098153;28;20227;-64
2022/10/03 14:17:04;;;;;;;2.03;0.80;;;;;;;;;;5097560;28;20205;-62
2022/10/03 14:19:35;;;;;;;1.63;0.70;;;;;;;;;;5095978;28;20202;-64
2022/10/03 14:22:21;;;;;;;2.93;0.80;;;;;;;;;;5097499;28;20284;-63
2022/10/03 14:24:56;;;;;;;2.23;0.77;;;;;;;;;;5097776;28;20304;-64
2022/10/03 14:27:50;;;;;;;0.60;0.60;;;;;;;;;;5097642;28;20285;-62
2022/10/03 14:30:21;;;;;;;1.10;0.70;;;;;;;;;;5062100;28;20205;-63
2022/10/03 14:32:57;;;;;;;2.20;0.80;;;;;;;;;;5097511;28;20210;-64
2022/10/03 14:35:36;;;;;;;1.17;0.80;;;;;;;;;;5089970;28;20201;-63
2022/10/03 14:38:19;;;;;;;0.57;0.53;;;;;;;;;;5097431;28;20263;-63
2022/10/03 14:40:48;;;;;;;1.80;1.23;;;;;;;;;;5064297;28;20628;-64
2022/10/03 14:43:40;;;;;;;1.63;1.30;;;;;;;;;;5097213;28;20243;-64
2022/10/03 14:46:10;;;;;;;1.67;1.13;;;;;;;;;;5081817;28;20692;-64
2022/10/03 14:48:40;;;;;;;1.43;1.10;;;;;;;;;;5089754;28;20198;-62
2022/10/03 14:51:12;;;;;;;1.40;1.20;;;;;;;;;;5097067;28;20724;-63
2022/10/03 14:53:45;;;;;;;0.70;0.70;;;;;;;;;;5090010;28;20222;-63
2022/10/03 14:56:16;;;;;;;0.80;0.80;;;;;;;;;;5096945;28;20193;-63
2022/10/03 14:58:45;;;;;;;3.10;0.80;;;;;;;;;;5092793;28;20205;-63
2022/10/03 15:01:18;;;;;;;1.90;0.80;;;;;;;;;;5096712;28;20193;-63
2022/10/03 15:03:52;;;;;;;1.33;0.77;;;;;;;;;;5094358;28;20286;-63
2022/10/03 15:06:41;;;;;;;2.80;1.30;;;;;;;;;;5097496;28;20223;-64
2022/10/03 15:09:10;;;;;;;0.83;0.83;;;;;;;;;;5092331;28;20648;-64
2022/10/03 15:11:46;;;;;;;2.50;0.67;;;;;;;;;;5096981;28;20205;-63
2022/10/03 15:14:15;;;;;;;0.87;0.70;;;;;;;;;;5096936;28;20225;-63
2022/10/03 15:16:47;;;;;;;1.67;0.83;;;;;;;;;;5096664;28;20212;-63
2022/10/03 15:19:17;;;;;;;0.80;0.80;;;;;;;;;;5097085;28;20694;-63
2022/10/03 15:21:46;;;;;;;1.03;0.93;;;;;;;;;;5096395;28;20647;-63
2022/10/03 15:24:19;;;;;;;0.80;0.80;;;;;;;;;;5089506;28;20218;-64
2022/10/03 15:26:54;;;;;;;1.10;0.70;;;;;;;;;;5096304;28;20228;-63
2022/10/03 15:29:23;;;;;;;2.23;1.00;;;;;;;;;;5097621;28;20728;-64
2022/10/03 15:31:54;;;;;;;5.30;1.70;;;;;;;;;;5098838;28;20660;-64
2022/10/03 15:34:24;;;;;;;1.10;1.00;;;;;;;;;;5100711;28;20281;-63
2022/10/03 15:36:54;;;;;;;1.47;1.33;;;;;;;;;;5100841;28;20281;-64
2022/10/03 15:39:25;;;;;;;1.60;0.90;;;;;;;;;;5100922;28;20282;-63
2022/10/03 15:41:55;;;;;;;1.17;0.87;;;;;;;;;;5100647;28;20284;-63
2022/10/03 15:44:27;;;;;;;1.57;0.87;;;;;;;;;;5099334;28;20217;-64
2022/10/03 15:47:00;;;;;;;0.97;0.97;;;;;;;;;;5098317;28;20234;-63
2022/10/03 15:49:30;;;;;;;0.80;0.80;;;;;;;;;;5100866;28;20212;-63
2022/10/03 15:52:00;;;;;;;0.93;0.90;;;;;;;;;;5100297;28;20237;-63
2022/10/03 15:54:31;;;;;;;3.07;0.90;;;;;;;;;;5100409;28;20593;-63
2022/10/03 15:57:00;;;;;;;1.07;0.97;;;;;;;;;;5100111;28;20194;-64
2022/10/03 15:59:32;;;;;;;2.73;1.00;;;;;;;;;;5100480;28;20206;-64
2022/10/03 16:02:04;;;;;;;4.30;1.17;;;;;;;;;;5096152;28;20209;-63
2022/10/03 16:04:33;;;;;;;1.00;0.90;;;;;;;;;;5099258;28;20222;-63
2022/10/03 16:07:08;;;;;;;1.57;1.00;;;;;;;;;;5099610;28;20696;-64